sensor_id;sensor_type;location;lat;lon;timestamp;temperature;humidity
11242;DHT22;5678;52.370;9.006;2023-04-25T00:02:10;7.30;99.90
11242;DHT22;5678;52.370;9.006;2023-04-25T00:04:38;6.60;99.90
11242;DHT22;5678;52.370;9.006;2023-04-25T00:07:06;7.00;99.90
11242;DHT22;5678;52.370;9.006;2023-04-25T00:09:36;6.60;99.90
11242;DHT22;5678;52.370;9.006;2023-04-25T00:12:04;6.90;99.90
11242;DHT22;5678;52.370;9.006;2023-04-25T00:14:32;6.60;99.90
11242;DHT22;5678;52.370;9.006;2023-04-25T00:17:02;7.00;99.90
11242;DHT22;5678;52.370;9.006;2023-04-25T00:19:30;6.60;99.90
11242;DHT22;5678;52.370;9.006;2023-04-25T00:21:59;6.60;99.90
11242;DHT22;5678;52.370;9.006;2023-04-25T00:24:27;6.50;99.90
11242;DHT22;5678;52.370;9.006;2023-04-25T00:26:56;6.50;99.90
11242;DHT22;5678;52.370;9.006;2023-04-25T00:29:24;7.30;99.90
11242;DHT22;5678;52.370;9.006;2023-04-25T00:31:52;6.50;99.90
11242;DHT22;5678;52.370;9.006;2023-04-25T00:34:20;6.50;99.90
11242;DHT22;5678;52.370;9.006;2023-04-25T00:36:48;6.50;99.90
11242;DHT22;5678;52.370;9.006;2023-04-25T00:39:16;6.40;99.90
11242;DHT22;5678;52.370;9.006;2023-04-25T00:41:45;7.10;99.90
11242;DHT22;5678;52.370;9.006;2023-04-25T00:44:15;6.50;99.90
11242;DHT22;5678;52.370;9.006;2023-04-25T00:46:43;6.30;99.90
11242;DHT22;5678;52.370;9.006;2023-04-25T00:49:12;7.60;99.90
11242;DHT22;5678;52.370;9.006;2023-04-25T00:51:42;6.20;99.90
11242;DHT22;5678;52.370;9.006;2023-04-25T00:54:11;6.30;99.90
11242;DHT22;5678;52.370;9.006;2023-04-25T00:56:39;7.10;99.90
11242;DHT22;5678;52.370;9.006;2023-04-25T00:59:09;6.20;99.90
11242;DHT22;5678;52.370;9.006;2023-04-25T01:01:39;6.70;99.90
11242;DHT22;5678;52.370;9.006;2023-04-25T01:04:08;6.10;99.90
11242;DHT22;5678;52.370;9.006;2023-04-25T01:06:36;6.00;99.90
11242;DHT22;5678;52.370;9.006;2023-04-25T01:09:04;6.20;99.90
11242;DHT22;5678;52.370;9.006;2023-04-25T01:11:32;6.60;99.90
11242;DHT22;5678;52.370;9.006;2023-04-25T01:14:00;6.50;99.90
11242;DHT22;5678;52.370;9.006;2023-04-25T01:16:29;6.40;99.90
11242;DHT22;5678;52.370;9.006;2023-04-25T01:18:59;6.10;99.90
11242;DHT22;5678;52.370;9.006;2023-04-25T01:21:28;6.10;99.90
11242;DHT22;5678;52.370;9.006;2023-04-25T01:23:57;6.80;99.90
11242;DHT22;5678;52.370;9.006;2023-04-25T01:26:25;6.10;99.90
11242;DHT22;5678;52.370;9.006;2023-04-25T01:28:53;6.00;99.90
11242;DHT22;5678;52.370;9.006;2023-04-25T01:31:22;7.10;99.90
11242;DHT22;5678;52.370;9.006;2023-04-25T01:33:50;6.20;99.90
11242;DHT22;5678;52.370;9.006;2023-04-25T01:36:19;6.40;99.90
11242;DHT22;5678;52.370;9.006;2023-04-25T01:38:49;6.30;99.90
11242;DHT22;5678;52.370;9.006;2023-04-25T01:41:17;6.00;99.90
11242;DHT22;5678;52.370;9.006;2023-04-25T01:43:45;7.30;99.90
11242;DHT22;5678;52.370;9.006;2023-04-25T01:46:13;5.80;99.90
11242;DHT22;5678;52.370;9.006;2023-04-25T01:48:41;6.30;99.90
11242;DHT22;5678;52.370;9.006;2023-04-25T01:51:09;5.90;99.90
11242;DHT22;5678;52.370;9.006;2023-04-25T01:53:38;5.60;99.90
11242;DHT22;5678;52.370;9.006;2023-04-25T01:56:08;7.30;99.90
11242;DHT22;5678;52.370;9.006;2023-04-25T01:58:36;5.90;99.90
11242;DHT22;5678;52.370;9.006;2023-04-25T02:01:04;7.00;99.90
11242;DHT22;5678;52.370;9.006;2023-04-25T02:03:32;7.10;99.90
11242;DHT22;5678;52.370;9.006;2023-04-25T02:06:01;7.30;99.90
11242;DHT22;5678;52.370;9.006;2023-04-25T02:08:28;6.70;99.90
11242;DHT22;5678;52.370;9.006;2023-04-25T02:10:57;7.20;99.90
11242;DHT22;5678;52.370;9.006;2023-04-25T02:13:27;5.90;99.90
11242;DHT22;5678;52.370;9.006;2023-04-25T02:15:54;5.90;99.90
11242;DHT22;5678;52.370;9.006;2023-04-25T02:18:22;6.80;99.90
11242;DHT22;5678;52.370;9.006;2023-04-25T02:20:50;7.70;99.90
11242;DHT22;5678;52.370;9.006;2023-04-25T02:23:18;6.70;99.90
11242;DHT22;5678;52.370;9.006;2023-04-25T02:25:46;5.80;99.90
11242;DHT22;5678;52.370;9.006;2023-04-25T02:28:14;5.80;99.90
11242;DHT22;5678;52.370;9.006;2023-04-25T02:30:43;5.80;99.90
11242;DHT22;5678;52.370;9.006;2023-04-25T02:33:11;5.90;99.90
11242;DHT22;5678;52.370;9.006;2023-04-25T02:35:39;5.60;99.90
11242;DHT22;5678;52.370;9.006;2023-04-25T02:38:07;5.50;99.90
11242;DHT22;5678;52.370;9.006;2023-04-25T02:40:35;7.20;99.90
11242;DHT22;5678;52.370;9.006;2023-04-25T02:43:03;5.50;99.90
11242;DHT22;5678;52.370;9.006;2023-04-25T02:45:31;6.00;99.90
11242;DHT22;5678;52.370;9.006;2023-04-25T02:48:00;6.10;99.90
11242;DHT22;5678;52.370;9.006;2023-04-25T02:50:28;5.70;99.90
11242;DHT22;5678;52.370;9.006;2023-04-25T02:52:56;6.20;99.90
11242;DHT22;5678;52.370;9.006;2023-04-25T02:55:24;5.30;99.90
11242;DHT22;5678;52.370;9.006;2023-04-25T02:57:54;5.70;99.90
11242;DHT22;5678;52.370;9.006;2023-04-25T03:00:22;6.40;99.90
11242;DHT22;5678;52.370;9.006;2023-04-25T03:02:50;5.70;99.90
11242;DHT22;5678;52.370;9.006;2023-04-25T03:05:20;6.80;99.90
11242;DHT22;5678;52.370;9.006;2023-04-25T03:07:48;5.70;99.90
11242;DHT22;5678;52.370;9.006;2023-04-25T03:10:16;6.80;99.90
11242;DHT22;5678;52.370;9.006;2023-04-25T03:12:43;6.50;99.90
11242;DHT22;5678;52.370;9.006;2023-04-25T03:15:11;6.20;99.90
11242;DHT22;5678;52.370;9.006;2023-04-25T03:17:39;6.90;99.90
11242;DHT22;5678;52.370;9.006;2023-04-25T03:20:08;6.40;99.90
11242;DHT22;5678;52.370;9.006;2023-04-25T03:22:38;5.90;99.90
11242;DHT22;5678;52.370;9.006;2023-04-25T03:25:06;6.10;99.90
11242;DHT22;5678;52.370;9.006;2023-04-25T03:27:42;5.90;99.90
11242;DHT22;5678;52.370;9.006;2023-04-25T03:30:10;5.80;99.90
11242;DHT22;5678;52.370;9.006;2023-04-25T03:32:38;5.80;99.90
11242;DHT22;5678;52.370;9.006;2023-04-25T03:35:07;5.60;99.90
11242;DHT22;5678;52.370;9.006;2023-04-25T03:37:35;5.90;99.90
11242;DHT22;5678;52.370;9.006;2023-04-25T03:40:05;5.90;99.90
11242;DHT22;5678;52.370;9.006;2023-04-25T03:42:33;5.80;99.90
11242;DHT22;5678;52.370;9.006;2023-04-25T03:45:01;5.70;99.90
11242;DHT22;5678;52.370;9.006;2023-04-25T03:47:29;5.60;99.90
11242;DHT22;5678;52.370;9.006;2023-04-25T03:49:57;5.60;99.90
11242;DHT22;5678;52.370;9.006;2023-04-25T03:52:27;5.50;99.90
11242;DHT22;5678;52.370;9.006;2023-04-25T03:54:55;6.60;99.90
11242;DHT22;5678;52.370;9.006;2023-04-25T03:57:24;5.80;99.90
11242;DHT22;5678;52.370;9.006;2023-04-25T03:59:52;5.60;99.90
11242;DHT22;5678;52.370;9.006;2023-04-25T04:02:19;5.60;99.90
11242;DHT22;5678;52.370;9.006;2023-04-25T04:04:47;5.70;99.90
11242;DHT22;5678;52.370;9.006;2023-04-25T04:07:16;6.30;99.90
11242;DHT22;5678;52.370;9.006;2023-04-25T04:09:44;5.80;99.90
11242;DHT22;5678;52.370;9.006;2023-04-25T04:12:12;5.80;99.90
11242;DHT22;5678;52.370;9.006;2023-04-25T04:14:41;5.70;99.90
11242;DHT22;5678;52.370;9.006;2023-04-25T04:17:09;5.70;99.90
11242;DHT22;5678;52.370;9.006;2023-04-25T04:19:37;5.80;99.90
11242;DHT22;5678;52.370;9.006;2023-04-25T04:22:05;5.70;99.90
11242;DHT22;5678;52.370;9.006;2023-04-25T04:24:32;6.60;99.90
11242;DHT22;5678;52.370;9.006;2023-04-25T04:27:00;5.60;99.90
11242;DHT22;5678;52.370;9.006;2023-04-25T04:29:29;5.50;99.90
11242;DHT22;5678;52.370;9.006;2023-04-25T04:31:58;6.20;99.90
11242;DHT22;5678;52.370;9.006;2023-04-25T04:34:28;5.50;99.90
11242;DHT22;5678;52.370;9.006;2023-04-25T04:36:57;5.50;99.90
11242;DHT22;5678;52.370;9.006;2023-04-25T04:39:25;5.50;99.90
11242;DHT22;5678;52.370;9.006;2023-04-25T04:41:53;5.50;99.90
11242;DHT22;5678;52.370;9.006;2023-04-25T04:44:21;6.00;99.90
11242;DHT22;5678;52.370;9.006;2023-04-25T04:46:49;7.10;99.90
11242;DHT22;5678;52.370;9.006;2023-04-25T04:49:18;6.00;99.90
11242;DHT22;5678;52.370;9.006;2023-04-25T04:51:46;5.60;99.90
11242;DHT22;5678;52.370;9.006;2023-04-25T04:54:16;6.10;99.90
11242;DHT22;5678;52.370;9.006;2023-04-25T04:56:44;5.70;99.90
11242;DHT22;5678;52.370;9.006;2023-04-25T04:59:12;6.90;99.90
11242;DHT22;5678;52.370;9.006;2023-04-25T05:01:40;6.50;99.90
11242;DHT22;5678;52.370;9.006;2023-04-25T05:04:08;5.80;99.90
11242;DHT22;5678;52.370;9.006;2023-04-25T05:06:37;6.10;99.90
11242;DHT22;5678;52.370;9.006;2023-04-25T05:09:05;5.60;99.90
11242;DHT22;5678;52.370;9.006;2023-04-25T05:11:33;5.80;99.90
11242;DHT22;5678;52.370;9.006;2023-04-25T05:14:01;5.70;99.90
11242;DHT22;5678;52.370;9.006;2023-04-25T05:16:29;6.00;99.90
11242;DHT22;5678;52.370;9.006;2023-04-25T05:18:57;6.00;99.90
11242;DHT22;5678;52.370;9.006;2023-04-25T05:21:25;5.80;99.90
11242;DHT22;5678;52.370;9.006;2023-04-25T05:23:55;6.60;99.90
11242;DHT22;5678;52.370;9.006;2023-04-25T05:26:23;5.90;99.90
11242;DHT22;5678;52.370;9.006;2023-04-25T05:28:51;6.00;99.90
11242;DHT22;5678;52.370;9.006;2023-04-25T05:31:19;6.10;99.90
11242;DHT22;5678;52.370;9.006;2023-04-25T05:33:47;6.40;99.90
11242;DHT22;5678;52.370;9.006;2023-04-25T05:36:15;6.10;99.90
11242;DHT22;5678;52.370;9.006;2023-04-25T05:38:43;6.30;99.90
11242;DHT22;5678;52.370;9.006;2023-04-25T05:41:12;6.20;99.90
11242;DHT22;5678;52.370;9.006;2023-04-25T05:43:40;6.30;99.90
11242;DHT22;5678;52.370;9.006;2023-04-25T05:46:11;6.90;99.90
11242;DHT22;5678;52.370;9.006;2023-04-25T05:48:39;6.90;99.90
11242;DHT22;5678;52.370;9.006;2023-04-25T05:51:07;7.00;99.90
11242;DHT22;5678;52.370;9.006;2023-04-25T05:53:35;6.70;99.90
11242;DHT22;5678;52.370;9.006;2023-04-25T05:56:03;7.20;99.90
11242;DHT22;5678;52.370;9.006;2023-04-25T05:58:33;6.80;99.90
11242;DHT22;5678;52.370;9.006;2023-04-25T06:01:01;6.70;99.90
11242;DHT22;5678;52.370;9.006;2023-04-25T06:03:30;8.50;99.90
11242;DHT22;5678;52.370;9.006;2023-04-25T06:05:58;6.40;99.90
11242;DHT22;5678;52.370;9.006;2023-04-25T06:08:26;6.90;99.90
11242;DHT22;5678;52.370;9.006;2023-04-25T06:10:54;7.00;99.90
11242;DHT22;5678;52.370;9.006;2023-04-25T06:13:22;7.10;99.90
11242;DHT22;5678;52.370;9.006;2023-04-25T06:15:51;7.00;99.90
11242;DHT22;5678;52.370;9.006;2023-04-25T06:18:19;7.50;99.90
11242;DHT22;5678;52.370;9.006;2023-04-25T06:20:47;7.20;99.90
11242;DHT22;5678;52.370;9.006;2023-04-25T06:23:15;7.50;99.90
11242;DHT22;5678;52.370;9.006;2023-04-25T06:25:43;8.10;99.90
11242;DHT22;5678;52.370;9.006;2023-04-25T06:28:11;8.20;99.90
11242;DHT22;5678;52.370;9.006;2023-04-25T06:30:39;8.70;99.90
11242;DHT22;5678;52.370;9.006;2023-04-25T06:33:08;8.60;99.90
11242;DHT22;5678;52.370;9.006;2023-04-25T06:35:36;8.50;99.90
11242;DHT22;5678;52.370;9.006;2023-04-25T06:38:04;8.60;99.90
11242;DHT22;5678;52.370;9.006;2023-04-25T06:40:32;8.00;99.90
11242;DHT22;5678;52.370;9.006;2023-04-25T06:43:00;8.30;99.90
11242;DHT22;5678;52.370;9.006;2023-04-25T06:45:27;8.30;99.90
11242;DHT22;5678;52.370;9.006;2023-04-25T06:47:55;8.10;99.90
11242;DHT22;5678;52.370;9.006;2023-04-25T06:50:25;8.00;99.90
11242;DHT22;5678;52.370;9.006;2023-04-25T06:52:53;9.90;99.90
11242;DHT22;5678;52.370;9.006;2023-04-25T06:55:20;7.80;99.90
11242;DHT22;5678;52.370;9.006;2023-04-25T06:57:48;8.00;99.90
11242;DHT22;5678;52.370;9.006;2023-04-25T07:00:17;8.00;99.90
11242;DHT22;5678;52.370;9.006;2023-04-25T07:02:45;8.00;99.90
11242;DHT22;5678;52.370;9.006;2023-04-25T07:05:13;7.90;99.90
11242;DHT22;5678;52.370;9.006;2023-04-25T07:07:46;7.90;99.90
11242;DHT22;5678;52.370;9.006;2023-04-25T07:10:14;8.10;99.90
11242;DHT22;5678;52.370;9.006;2023-04-25T07:12:47;8.50;99.90
11242;DHT22;5678;52.370;9.006;2023-04-25T07:15:15;8.10;99.90
11242;DHT22;5678;52.370;9.006;2023-04-25T07:17:43;8.00;99.90
11242;DHT22;5678;52.370;9.006;2023-04-25T07:20:11;8.50;99.90
11242;DHT22;5678;52.370;9.006;2023-04-25T07:25:09;8.20;99.90
11242;DHT22;5678;52.370;9.006;2023-04-25T07:27:37;8.30;99.90
11242;DHT22;5678;52.370;9.006;2023-04-25T07:30:06;8.60;99.90
11242;DHT22;5678;52.370;9.006;2023-04-25T07:32:35;8.50;99.90
11242;DHT22;5678;52.370;9.006;2023-04-25T07:35:03;8.90;99.90
11242;DHT22;5678;52.370;9.006;2023-04-25T07:37:31;9.00;99.90
11242;DHT22;5678;52.370;9.006;2023-04-25T07:39:59;9.10;99.90
11242;DHT22;5678;52.370;9.006;2023-04-25T07:42:29;9.40;99.90
11242;DHT22;5678;52.370;9.006;2023-04-25T07:44:57;9.80;99.90
11242;DHT22;5678;52.370;9.006;2023-04-25T07:47:25;12.30;99.90
11242;DHT22;5678;52.370;9.006;2023-04-25T07:49:53;10.70;99.90
11242;DHT22;5678;52.370;9.006;2023-04-25T07:52:21;10.00;99.90
11242;DHT22;5678;52.370;9.006;2023-04-25T07:54:49;10.40;99.90
11242;DHT22;5678;52.370;9.006;2023-04-25T07:57:16;11.80;99.90
11242;DHT22;5678;52.370;9.006;2023-04-25T07:59:47;10.00;99.90
11242;DHT22;5678;52.370;9.006;2023-04-25T08:02:15;9.80;99.90
11242;DHT22;5678;52.370;9.006;2023-04-25T08:04:43;9.60;99.90
11242;DHT22;5678;52.370;9.006;2023-04-25T08:07:11;9.60;99.90
11242;DHT22;5678;52.370;9.006;2023-04-25T08:09:39;10.00;99.90
11242;DHT22;5678;52.370;9.006;2023-04-25T08:12:07;10.10;99.90
11242;DHT22;5678;52.370;9.006;2023-04-25T08:14:35;9.90;99.90
11242;DHT22;5678;52.370;9.006;2023-04-25T08:17:05;9.90;99.90
11242;DHT22;5678;52.370;9.006;2023-04-25T08:19:33;10.50;99.90
11242;DHT22;5678;52.370;9.006;2023-04-25T08:22:01;10.50;99.90
11242;DHT22;5678;52.370;9.006;2023-04-25T08:24:29;10.70;99.90
11242;DHT22;5678;52.370;9.006;2023-04-25T08:26:57;10.30;99.90
11242;DHT22;5678;52.370;9.006;2023-04-25T08:29:25;10.30;99.90
11242;DHT22;5678;52.370;9.006;2023-04-25T08:31:55;10.00;99.90
11242;DHT22;5678;52.370;9.006;2023-04-25T08:34:24;10.70;99.90
11242;DHT22;5678;52.370;9.006;2023-04-25T08:36:53;9.90;99.90
11242;DHT22;5678;52.370;9.006;2023-04-25T08:39:20;11.60;99.90
11242;DHT22;5678;52.370;9.006;2023-04-25T08:41:49;9.70;99.90
11242;DHT22;5678;52.370;9.006;2023-04-25T08:44:17;10.20;99.90
11242;DHT22;5678;52.370;9.006;2023-04-25T08:46:46;10.10;99.90
11242;DHT22;5678;52.370;9.006;2023-04-25T08:49:17;10.20;99.90
11242;DHT22;5678;52.370;9.006;2023-04-25T08:51:47;10.30;99.90
11242;DHT22;5678;52.370;9.006;2023-04-25T08:54:17;10.30;99.90
11242;DHT22;5678;52.370;9.006;2023-04-25T08:57:02;10.20;99.90
11242;DHT22;5678;52.370;9.006;2023-04-25T08:59:33;10.60;99.90
11242;DHT22;5678;52.370;9.006;2023-04-25T09:02:03;11.20;99.90
11242;DHT22;5678;52.370;9.006;2023-04-25T09:04:31;11.40;99.90
11242;DHT22;5678;52.370;9.006;2023-04-25T09:07:01;12.00;99.90
11242;DHT22;5678;52.370;9.006;2023-04-25T09:09:29;11.30;99.90
11242;DHT22;5678;52.370;9.006;2023-04-25T09:11:59;11.60;99.90
11242;DHT22;5678;52.370;9.006;2023-04-25T09:14:28;11.60;99.90
11242;DHT22;5678;52.370;9.006;2023-04-25T09:17:03;12.20;99.90
11242;DHT22;5678;52.370;9.006;2023-04-25T09:19:33;13.60;99.90
11242;DHT22;5678;52.370;9.006;2023-04-25T09:22:08;12.60;99.90
11242;DHT22;5678;52.370;9.006;2023-04-25T09:24:38;12.10;99.90
11242;DHT22;5678;52.370;9.006;2023-04-25T09:27:07;14.00;99.90
11242;DHT22;5678;52.370;9.006;2023-04-25T09:29:37;12.20;99.90
11242;DHT22;5678;52.370;9.006;2023-04-25T09:32:17;12.90;99.90
11242;DHT22;5678;52.370;9.006;2023-04-25T09:34:47;13.70;99.90
11242;DHT22;5678;52.370;9.006;2023-04-25T09:37:20;11.80;99.90
11242;DHT22;5678;52.370;9.006;2023-04-25T09:39:50;12.00;99.90
11242;DHT22;5678;52.370;9.006;2023-04-25T09:42:18;12.40;99.90
11242;DHT22;5678;52.370;9.006;2023-04-25T09:44:51;12.20;99.90
11242;DHT22;5678;52.370;9.006;2023-04-25T09:47:20;12.20;99.90
11242;DHT22;5678;52.370;9.006;2023-04-25T09:49:51;12.40;99.90
11242;DHT22;5678;52.370;9.006;2023-04-25T09:52:22;11.80;99.90
11242;DHT22;5678;52.370;9.006;2023-04-25T09:54:52;12.30;99.90
11242;DHT22;5678;52.370;9.006;2023-04-25T09:57:21;12.10;99.90
11242;DHT22;5678;52.370;9.006;2023-04-25T09:59:50;12.50;99.90
11242;DHT22;5678;52.370;9.006;2023-04-25T10:02:20;12.50;99.90
11242;DHT22;5678;52.370;9.006;2023-04-25T10:04:49;13.00;99.90
11242;DHT22;5678;52.370;9.006;2023-04-25T10:07:22;13.90;99.90
11242;DHT22;5678;52.370;9.006;2023-04-25T10:09:55;12.70;99.90
11242;DHT22;5678;52.370;9.006;2023-04-25T10:12:26;12.90;99.90
11242;DHT22;5678;52.370;9.006;2023-04-25T10:14:54;13.40;99.90
11242;DHT22;5678;52.370;9.006;2023-04-25T10:17:24;13.10;99.90
11242;DHT22;5678;52.370;9.006;2023-04-25T10:19:54;15.00;99.90
11242;DHT22;5678;52.370;9.006;2023-04-25T10:22:29;14.70;99.90
11242;DHT22;5678;52.370;9.006;2023-04-25T10:24:58;12.60;99.90
11242;DHT22;5678;52.370;9.006;2023-04-25T10:27:27;12.40;99.90
11242;DHT22;5678;52.370;9.006;2023-04-25T10:30:02;13.90;99.90
11242;DHT22;5678;52.370;9.006;2023-04-25T10:32:32;12.80;99.90
11242;DHT22;5678;52.370;9.006;2023-04-25T10:35:10;12.40;99.90
11242;DHT22;5678;52.370;9.006;2023-04-25T10:37:56;12.50;99.90
11242;DHT22;5678;52.370;9.006;2023-04-25T10:40:25;11.90;99.90
11242;DHT22;5678;52.370;9.006;2023-04-25T10:42:53;11.60;99.90
11242;DHT22;5678;52.370;9.006;2023-04-25T10:45:22;10.80;99.90
11242;DHT22;5678;52.370;9.006;2023-04-25T10:47:50;10.40;99.90
11242;DHT22;5678;52.370;9.006;2023-04-25T10:50:18;10.30;99.90
11242;DHT22;5678;52.370;9.006;2023-04-25T10:52:48;9.80;99.90
11242;DHT22;5678;52.370;9.006;2023-04-25T10:55:16;9.70;99.90
11242;DHT22;5678;52.370;9.006;2023-04-25T10:57:45;10.90;99.90
11242;DHT22;5678;52.370;9.006;2023-04-25T11:00:16;10.00;99.90
11242;DHT22;5678;52.370;9.006;2023-04-25T11:02:47;10.30;99.90
11242;DHT22;5678;52.370;9.006;2023-04-25T11:05:32;9.50;99.90
11242;DHT22;5678;52.370;9.006;2023-04-25T11:08:31;10.20;99.90
11242;DHT22;5678;52.370;9.006;2023-04-25T11:11:03;10.50;99.90
11242;DHT22;5678;52.370;9.006;2023-04-25T11:13:31;11.00;99.90
11242;DHT22;5678;52.370;9.006;2023-04-25T11:15:59;11.70;99.90
11242;DHT22;5678;52.370;9.006;2023-04-25T11:18:41;11.60;99.90
11242;DHT22;5678;52.370;9.006;2023-04-25T11:21:09;11.90;99.90
11242;DHT22;5678;52.370;9.006;2023-04-25T11:23:38;13.10;99.90
11242;DHT22;5678;52.370;9.006;2023-04-25T11:26:06;13.90;99.90
11242;DHT22;5678;52.370;9.006;2023-04-25T11:28:34;13.80;99.90
11242;DHT22;5678;52.370;9.006;2023-04-25T11:31:03;13.80;99.90
11242;DHT22;5678;52.370;9.006;2023-04-25T11:33:32;13.60;99.90
11242;DHT22;5678;52.370;9.006;2023-04-25T11:36:00;15.70;99.90
11242;DHT22;5678;52.370;9.006;2023-04-25T11:38:28;13.70;99.90
11242;DHT22;5678;52.370;9.006;2023-04-25T11:40:57;14.00;99.90
11242;DHT22;5678;52.370;9.006;2023-04-25T11:43:25;14.20;99.90
11242;DHT22;5678;52.370;9.006;2023-04-25T11:45:53;14.50;99.90
11242;DHT22;5678;52.370;9.006;2023-04-25T11:48:21;15.20;99.90
11242;DHT22;5678;52.370;9.006;2023-04-25T11:50:53;14.40;99.90
11242;DHT22;5678;52.370;9.006;2023-04-25T11:53:21;14.50;99.90
11242;DHT22;5678;52.370;9.006;2023-04-25T11:55:51;14.20;99.90
11242;DHT22;5678;52.370;9.006;2023-04-25T11:58:21;14.80;99.90
11242;DHT22;5678;52.370;9.006;2023-04-25T12:00:49;14.60;99.90
11242;DHT22;5678;52.370;9.006;2023-04-25T12:03:17;14.10;99.90
11242;DHT22;5678;52.370;9.006;2023-04-25T12:05:46;15.60;99.90
11242;DHT22;5678;52.370;9.006;2023-04-25T12:08:15;15.60;99.90
11242;DHT22;5678;52.370;9.006;2023-04-25T12:10:45;15.40;99.90
11242;DHT22;5678;52.370;9.006;2023-04-25T12:13:22;13.90;99.90
11242;DHT22;5678;52.370;9.006;2023-04-25T12:15:51;13.60;99.90
11242;DHT22;5678;52.370;9.006;2023-04-25T12:18:19;12.90;99.90
11242;DHT22;5678;52.370;9.006;2023-04-25T12:20:48;14.00;99.90
11242;DHT22;5678;52.370;9.006;2023-04-25T12:23:16;12.00;99.90
11242;DHT22;5678;52.370;9.006;2023-04-25T12:25:44;11.00;99.90
11242;DHT22;5678;52.370;9.006;2023-04-25T12:28:15;10.60;99.90
11242;DHT22;5678;52.370;9.006;2023-04-25T12:30:54;10.00;99.90
11242;DHT22;5678;52.370;9.006;2023-04-25T12:33:22;9.90;99.90
11242;DHT22;5678;52.370;9.006;2023-04-25T12:35:50;10.40;99.90
11242;DHT22;5678;52.370;9.006;2023-04-25T12:38:23;9.70;99.90
11242;DHT22;5678;52.370;9.006;2023-04-25T12:40:52;10.80;99.90
11242;DHT22;5678;52.370;9.006;2023-04-25T12:43:20;11.30;99.90
11242;DHT22;5678;52.370;9.006;2023-04-25T12:45:49;9.80;99.90
11242;DHT22;5678;52.370;9.006;2023-04-25T12:48:20;10.30;99.90
11242;DHT22;5678;52.370;9.006;2023-04-25T12:50:48;10.50;99.90
11242;DHT22;5678;52.370;9.006;2023-04-25T12:53:17;11.70;99.90
11242;DHT22;5678;52.370;9.006;2023-04-25T12:55:46;11.10;99.90
11242;DHT22;5678;52.370;9.006;2023-04-25T12:58:14;11.20;99.90
11242;DHT22;5678;52.370;9.006;2023-04-25T13:00:42;11.20;99.90
11242;DHT22;5678;52.370;9.006;2023-04-25T13:03:10;12.10;99.90
11242;DHT22;5678;52.370;9.006;2023-04-25T13:05:41;11.70;99.90
11242;DHT22;5678;52.370;9.006;2023-04-25T13:08:09;12.40;99.90
11242;DHT22;5678;52.370;9.006;2023-04-25T13:10:38;11.90;99.90
11242;DHT22;5678;52.370;9.006;2023-04-25T13:13:06;12.10;99.90
11242;DHT22;5678;52.370;9.006;2023-04-25T13:15:35;11.70;99.90
11242;DHT22;5678;52.370;9.006;2023-04-25T13:18:03;11.30;99.90
11242;DHT22;5678;52.370;9.006;2023-04-25T13:20:32;11.70;99.90
11242;DHT22;5678;52.370;9.006;2023-04-25T13:23:01;11.40;99.90
11242;DHT22;5678;52.370;9.006;2023-04-25T13:25:29;11.30;99.90
11242;DHT22;5678;52.370;9.006;2023-04-25T13:27:57;11.00;99.90
11242;DHT22;5678;52.370;9.006;2023-04-25T13:30:25;11.00;99.90
11242;DHT22;5678;52.370;9.006;2023-04-25T13:32:54;10.60;99.90
11242;DHT22;5678;52.370;9.006;2023-04-25T13:35:23;10.60;99.90
11242;DHT22;5678;52.370;9.006;2023-04-25T13:37:52;10.60;99.90
11242;DHT22;5678;52.370;9.006;2023-04-25T13:40:21;10.30;99.90
11242;DHT22;5678;52.370;9.006;2023-04-25T13:42:51;11.80;99.90
11242;DHT22;5678;52.370;9.006;2023-04-25T13:45:19;11.00;99.90
11242;DHT22;5678;52.370;9.006;2023-04-25T13:47:47;11.20;99.90
11242;DHT22;5678;52.370;9.006;2023-04-25T13:50:15;11.80;99.90
11242;DHT22;5678;52.370;9.006;2023-04-25T13:52:43;11.80;99.90
11242;DHT22;5678;52.370;9.006;2023-04-25T13:55:12;11.60;99.90
11242;DHT22;5678;52.370;9.006;2023-04-25T13:57:41;11.70;99.90
11242;DHT22;5678;52.370;9.006;2023-04-25T14:00:10;11.30;99.90
11242;DHT22;5678;52.370;9.006;2023-04-25T14:02:38;11.70;99.90
11242;DHT22;5678;52.370;9.006;2023-04-25T14:05:07;11.70;99.90
11242;DHT22;5678;52.370;9.006;2023-04-25T14:07:36;11.70;99.90
11242;DHT22;5678;52.370;9.006;2023-04-25T14:10:05;11.80;99.90
11242;DHT22;5678;52.370;9.006;2023-04-25T14:12:33;11.90;99.90
11242;DHT22;5678;52.370;9.006;2023-04-25T14:15:03;12.30;99.90
11242;DHT22;5678;52.370;9.006;2023-04-25T14:17:32;11.60;99.90
11242;DHT22;5678;52.370;9.006;2023-04-25T14:20:00;11.50;99.90
11242;DHT22;5678;52.370;9.006;2023-04-25T14:22:28;11.60;99.90
11242;DHT22;5678;52.370;9.006;2023-04-25T14:24:56;11.60;99.90
11242;DHT22;5678;52.370;9.006;2023-04-25T14:27:24;12.00;99.90
11242;DHT22;5678;52.370;9.006;2023-04-25T14:29:55;11.70;99.90
11242;DHT22;5678;52.370;9.006;2023-04-25T14:32:24;12.00;99.90
11242;DHT22;5678;52.370;9.006;2023-04-25T14:34:52;12.20;99.90
11242;DHT22;5678;52.370;9.006;2023-04-25T14:37:20;13.90;99.90
11242;DHT22;5678;52.370;9.006;2023-04-25T14:39:48;11.70;99.90
11242;DHT22;5678;52.370;9.006;2023-04-25T14:42:16;12.30;99.90
11242;DHT22;5678;52.370;9.006;2023-04-25T14:44:44;12.90;99.90
11242;DHT22;5678;52.370;9.006;2023-04-25T14:47:13;12.30;99.90
11242;DHT22;5678;52.370;9.006;2023-04-25T14:49:43;11.30;99.90
11242;DHT22;5678;52.370;9.006;2023-04-25T14:52:17;13.20;99.90
11242;DHT22;5678;52.370;9.006;2023-04-25T14:54:45;11.70;99.90
11242;DHT22;5678;52.370;9.006;2023-04-25T14:57:13;12.20;99.90
11242;DHT22;5678;52.370;9.006;2023-04-25T14:59:42;11.80;99.90
11242;DHT22;5678;52.370;9.006;2023-04-25T15:02:10;11.30;99.90
11242;DHT22;5678;52.370;9.006;2023-04-25T15:04:38;12.90;99.90
11242;DHT22;5678;52.370;9.006;2023-04-25T15:07:08;10.40;99.90
11242;DHT22;5678;52.370;9.006;2023-04-25T15:09:36;10.90;99.90
11242;DHT22;5678;52.370;9.006;2023-04-25T15:12:05;12.00;99.90
11242;DHT22;5678;52.370;9.006;2023-04-25T15:14:33;10.20;99.90
11242;DHT22;5678;52.370;9.006;2023-04-25T15:17:01;9.70;99.90
11242;DHT22;5678;52.370;9.006;2023-04-25T15:19:29;12.20;99.90
11242;DHT22;5678;52.370;9.006;2023-04-25T15:21:57;10.00;99.90
11242;DHT22;5678;52.370;9.006;2023-04-25T15:24:29;10.20;99.90
11242;DHT22;5678;52.370;9.006;2023-04-25T15:26:57;10.20;99.90
11242;DHT22;5678;52.370;9.006;2023-04-25T15:29:25;10.40;99.90
11242;DHT22;5678;52.370;9.006;2023-04-25T15:31:53;10.00;99.90
11242;DHT22;5678;52.370;9.006;2023-04-25T15:34:21;10.10;99.90
11242;DHT22;5678;52.370;9.006;2023-04-25T15:36:49;10.30;99.90
11242;DHT22;5678;52.370;9.006;2023-04-25T15:39:17;10.20;99.90
11242;DHT22;5678;52.370;9.006;2023-04-25T15:41:47;10.60;99.90
11242;DHT22;5678;52.370;9.006;2023-04-25T15:44:15;11.70;99.90
11242;DHT22;5678;52.370;9.006;2023-04-25T15:46:43;10.40;99.90
11242;DHT22;5678;52.370;9.006;2023-04-25T15:49:12;10.80;99.90
11242;DHT22;5678;52.370;9.006;2023-04-25T15:51:40;10.70;99.90
11242;DHT22;5678;52.370;9.006;2023-04-25T15:54:07;10.70;99.90
11242;DHT22;5678;52.370;9.006;2023-04-25T15:56:36;10.80;99.90
11242;DHT22;5678;52.370;9.006;2023-04-25T15:59:05;10.90;99.90
11242;DHT22;5678;52.370;9.006;2023-04-25T16:01:34;10.70;99.90
11242;DHT22;5678;52.370;9.006;2023-04-25T16:04:02;10.70;99.90
11242;DHT22;5678;52.370;9.006;2023-04-25T16:06:30;11.20;99.90
11242;DHT22;5678;52.370;9.006;2023-04-25T16:08:59;9.70;99.90